Terminal Aerodrome Forecast
Issued by NWS

Home | Current Version | Previous Version | Text Only | Print | Product List | Glossary On
Versions: 1 2 3 4 5 6 7 8 9 10 11 12 13 14 15 16
222
FTUS42 KMLB 251722
TAFLEE
TAF
KLEE 251722Z 2518/2618 05012G18KT P6SM SCT040 SCT150 BKN250
     FM260000 05008KT P6SM SCT045
     FM260300 07011KT P6SM SCT035 BKN250
     FM260500 08009KT P6SM SCT030=

USA.gov is the U.S. government's official web portal to all federal, state and local government web resources and services.